createdAt,value
2022-09-12T00:01:54.650Z,25.50
2022-09-12T00:04:23.850Z,25.50
2022-09-12T00:06:53.075Z,25.60
2022-09-12T00:09:22.292Z,25.60
2022-09-12T00:11:51.663Z,25.60
2022-09-12T00:14:21.458Z,25.60
2022-09-12T00:16:50.661Z,25.60
2022-09-12T00:19:20.424Z,25.70
2022-09-12T00:21:49.651Z,25.70
2022-09-12T00:24:18.984Z,25.80
2022-09-12T00:26:48.244Z,25.80
2022-09-12T00:29:19.820Z,25.80
2022-09-12T00:31:49.524Z,25.90
2022-09-12T00:34:18.882Z,25.90
2022-09-12T00:36:48.154Z,26.00
2022-09-12T00:39:18.930Z,26.00
2022-09-12T00:41:48.175Z,26.00
2022-09-12T00:44:26.701Z,26.10
2022-09-12T00:47:07.351Z,26.20
2022-09-12T00:49:41.394Z,26.20
2022-09-12T00:52:14.136Z,26.20
2022-09-12T00:54:44.376Z,26.30
2022-09-12T00:57:16.133Z,26.30
2022-09-12T01:00:06.258Z,26.40
2022-09-12T01:02:36.047Z,26.40
2022-09-12T01:05:05.490Z,26.50
2022-09-12T01:07:40.247Z,26.50
2022-09-12T01:10:11.258Z,26.60
2022-09-12T01:12:42.840Z,26.60
2022-09-12T01:15:12.719Z,26.70
2022-09-12T01:18:05.841Z,26.80
2022-09-12T01:20:57.765Z,26.80
2022-09-12T01:23:50.543Z,26.90
2022-09-12T01:26:41.257Z,27.00
2022-09-12T01:29:37.797Z,27.00
2022-09-12T01:32:16.963Z,27.10
2022-09-12T01:34:50.346Z,27.20
2022-09-12T01:37:43.238Z,27.30
2022-09-12T01:40:26.745Z,27.40
2022-09-12T01:43:19.784Z,27.40
2022-09-12T01:46:04.663Z,27.50
2022-09-12T01:48:42.777Z,27.60
2022-09-12T01:51:19.350Z,27.60
2022-09-12T01:53:54.827Z,27.60
2022-09-12T01:56:31.108Z,27.60
2022-09-12T01:59:30.395Z,27.70
2022-09-12T02:02:33.005Z,27.80
2022-09-12T02:05:08.463Z,27.80
2022-09-12T02:07:54.390Z,27.80
2022-09-12T02:10:31.772Z,27.90
2022-09-12T02:13:24.671Z,28.00
2022-09-12T02:19:01.031Z,28.20
2022-09-12T02:21:34.504Z,28.30
2022-09-12T02:24:06.688Z,28.40
2022-09-12T02:26:43.700Z,28.60
2022-09-12T02:29:16.154Z,28.70
2022-09-12T02:32:01.320Z,28.70
2022-09-12T02:35:12.178Z,28.70
2022-09-12T02:37:56.460Z,28.70
2022-09-12T02:40:26.903Z,28.80
2022-09-12T02:42:56.256Z,28.80
2022-09-12T02:45:28.206Z,28.70
2022-09-12T02:48:01.844Z,28.70
2022-09-12T02:50:32.057Z,28.70
2022-09-12T02:53:06.987Z,28.70
2022-09-12T02:55:38.356Z,28.70
2022-09-12T02:58:12.180Z,28.80
2022-09-12T03:00:53.669Z,28.90
2022-09-12T03:03:23.851Z,28.90
2022-09-12T03:06:01.951Z,29.00
2022-09-12T03:08:51.224Z,29.00
2022-09-12T03:11:59.535Z,29.10
2022-09-12T03:15:02.943Z,29.20
2022-09-12T03:17:44.684Z,29.30
2022-09-12T03:20:19.866Z,29.30
2022-09-12T03:23:01.047Z,29.50
2022-09-12T03:25:36.554Z,29.50
2022-09-12T03:28:13.246Z,29.60
2022-09-12T03:30:45.824Z,29.60
2022-09-12T03:33:16.045Z,29.60
2022-09-12T03:35:46.616Z,29.60
2022-09-12T03:38:16.430Z,29.70
2022-09-12T03:40:54.107Z,29.70
2022-09-12T03:43:24.147Z,29.80
2022-09-12T03:45:55.250Z,29.80
2022-09-12T03:48:24.671Z,29.90
2022-09-12T03:50:53.907Z,30.00
2022-09-12T03:53:23.169Z,30.00
2022-09-12T03:55:52.398Z,30.10
2022-09-12T03:58:24.399Z,30.20
2022-09-12T04:00:53.992Z,30.30
2022-09-12T04:03:23.236Z,30.30
2022-09-12T04:05:52.540Z,30.30
2022-09-12T04:08:21.807Z,30.40
2022-09-12T04:10:51.031Z,30.50
2022-09-12T04:13:20.370Z,30.60
2022-09-12T04:16:00.279Z,30.60
2022-09-12T04:18:30.178Z,30.60
2022-09-12T04:21:00.069Z,30.70
2022-09-12T04:23:29.312Z,30.70
2022-09-12T04:26:00.934Z,30.70
2022-09-12T04:28:36.476Z,30.70
2022-09-12T04:31:10.543Z,30.70
2022-09-12T04:33:40.001Z,30.80
2022-09-12T04:36:11.837Z,30.80
2022-09-12T04:38:41.288Z,30.90
2022-09-12T04:41:16.354Z,30.90
2022-09-12T04:43:47.901Z,30.90
2022-09-12T04:46:21.358Z,31.00
2022-09-12T04:48:56.491Z,31.10
2022-09-12T04:51:30.101Z,31.10
2022-09-12T04:54:01.694Z,31.10
2022-09-12T04:56:32.079Z,31.10
2022-09-12T04:59:05.822Z,31.10
2022-09-12T05:01:35.717Z,31.10
2022-09-12T05:04:07.398Z,31.10
2022-09-12T05:06:38.648Z,31.00
2022-09-12T05:09:10.972Z,30.90
2022-09-12T05:12:03.370Z,30.90
2022-09-12T05:14:33.959Z,30.90
2022-09-12T05:17:04.698Z,30.80
2022-09-12T05:19:34.935Z,30.80
2022-09-12T05:22:06.364Z,30.80
2022-09-12T05:24:36.687Z,30.90
2022-09-12T05:27:06.217Z,31.00
2022-09-12T05:29:35.480Z,31.10
2022-09-12T05:32:05.369Z,31.10
2022-09-12T05:34:34.583Z,31.10
2022-09-12T05:37:03.826Z,31.10
2022-09-12T05:39:36.532Z,31.10
2022-09-12T05:42:07.552Z,31.20
2022-09-12T05:44:36.764Z,31.10
2022-09-12T05:47:06.057Z,31.20
2022-09-12T05:49:40.482Z,31.20
2022-09-12T05:52:10.097Z,31.20
2022-09-12T05:54:39.386Z,31.30
2022-09-12T05:57:08.596Z,31.30
2022-09-12T05:59:38.304Z,31.30
2022-09-12T06:02:08.088Z,31.30
2022-09-12T06:04:37.333Z,31.20
2022-09-12T06:07:07.535Z,31.10
2022-09-12T06:09:36.885Z,31.10
2022-09-12T06:12:06.795Z,31.20
2022-09-12T06:14:36.986Z,31.20
2022-09-12T06:17:06.985Z,31.20
2022-09-12T06:19:37.187Z,31.30
2022-09-12T06:22:06.885Z,31.20
2022-09-12T06:24:37.027Z,31.10
2022-09-12T06:27:06.569Z,31.00
2022-09-12T06:29:36.012Z,30.80
2022-09-12T06:32:05.257Z,30.60
2022-09-12T06:34:35.232Z,30.30
2022-09-12T06:37:05.374Z,30.10
2022-09-12T06:39:34.695Z,30.00
2022-09-12T06:42:03.848Z,29.70
2022-09-12T06:44:33.065Z,29.60
2022-09-12T06:47:02.350Z,29.50
2022-09-12T06:49:33.037Z,29.40
2022-09-12T06:52:03.564Z,29.30
2022-09-12T06:54:32.726Z,29.20
2022-09-12T06:57:02.265Z,29.20
2022-09-12T06:59:31.653Z,29.10
2022-09-12T07:02:03.391Z,29.10
2022-09-12T07:04:35.113Z,29.00
2022-09-12T07:07:04.429Z,29.00
2022-09-12T07:09:40.943Z,29.00
2022-09-12T07:12:13.676Z,29.00
2022-09-12T07:14:52.111Z,29.10
2022-09-12T07:17:31.108Z,29.00
2022-09-12T07:20:04.702Z,29.10
2022-09-12T07:22:45.019Z,29.00
2022-09-12T07:25:14.326Z,29.00
2022-09-12T07:27:51.139Z,28.90
2022-09-12T07:30:21.178Z,28.90
2022-09-12T07:32:54.079Z,28.90
2022-09-12T07:35:24.875Z,28.80
2022-09-12T07:37:54.112Z,28.80
2022-09-12T07:40:24.533Z,28.70
2022-09-12T07:42:53.695Z,28.70
2022-09-12T07:45:23.933Z,28.80
2022-09-12T07:47:57.277Z,28.80
2022-09-12T07:50:26.480Z,28.80
2022-09-12T07:52:57.034Z,28.80
2022-09-12T07:55:26.845Z,28.90
2022-09-12T07:57:56.921Z,28.90
2022-09-12T08:00:26.093Z,28.90
2022-09-12T08:02:56.653Z,28.90
2022-09-12T08:05:25.935Z,28.90
2022-09-12T08:07:57.753Z,28.90
2022-09-12T08:10:27.119Z,28.90
2022-09-12T08:12:57.293Z,28.80
2022-09-12T08:15:26.736Z,28.80
2022-09-12T08:17:56.067Z,28.80
2022-09-12T08:20:28.401Z,28.70
2022-09-12T08:22:58.052Z,28.70
2022-09-12T08:25:30.581Z,28.70
2022-09-12T08:28:00.196Z,28.60
2022-09-12T08:30:30.918Z,28.60
2022-09-12T08:33:02.841Z,28.60
2022-09-12T08:35:32.753Z,28.50
2022-09-12T08:38:01.973Z,28.50
2022-09-12T08:40:34.068Z,28.50
2022-09-12T08:43:27.854Z,28.50
2022-09-12T08:46:07.839Z,28.40
2022-09-12T08:48:38.767Z,28.40
2022-09-12T08:51:12.739Z,28.40
2022-09-12T08:53:43.028Z,28.40
2022-09-12T08:56:14.675Z,28.40
2022-09-12T08:58:46.048Z,28.30
2022-09-12T09:01:38.374Z,28.30
2022-09-12T09:04:14.178Z,28.30
2022-09-12T09:06:45.333Z,28.30
2022-09-12T09:09:17.884Z,28.40
2022-09-12T09:11:49.745Z,28.40
2022-09-12T09:14:47.442Z,28.40
2022-09-12T09:17:28.176Z,28.30
2022-09-12T09:20:23.797Z,28.40
2022-09-12T09:23:19.934Z,28.30
2022-09-12T09:26:10.362Z,28.30
2022-09-12T09:29:01.020Z,28.30
2022-09-12T09:31:41.316Z,28.30
2022-09-12T09:34:32.953Z,28.30
2022-09-12T09:37:10.536Z,28.30
2022-09-12T09:40:03.512Z,28.40
2022-09-12T09:42:52.733Z,28.50
2022-09-12T09:45:27.187Z,28.60
2022-09-12T09:48:21.106Z,28.60
2022-09-12T09:50:52.296Z,28.50
2022-09-12T09:53:43.727Z,28.50
2022-09-12T09:56:29.375Z,28.60
2022-09-12T09:58:58.674Z,28.50
2022-09-12T10:01:30.116Z,28.40
2022-09-12T10:04:00.696Z,28.40
2022-09-12T10:06:35.705Z,28.40
2022-09-12T10:09:12.664Z,28.40
2022-09-12T10:11:45.774Z,28.30
2022-09-12T10:14:36.475Z,28.20
2022-09-12T10:17:25.800Z,28.20
2022-09-12T10:20:17.440Z,28.20
2022-09-12T10:22:50.218Z,28.20
2022-09-12T10:25:22.613Z,28.10
2022-09-12T10:27:59.031Z,28.10
2022-09-12T10:30:29.615Z,28.10
2022-09-12T10:33:08.432Z,28.00
2022-09-12T10:35:52.205Z,28.00
2022-09-12T10:38:29.329Z,28.00
2022-09-12T10:41:05.289Z,28.00
2022-09-12T10:43:37.446Z,27.90
2022-09-12T10:46:24.735Z,27.90
2022-09-12T10:49:21.083Z,27.90
2022-09-12T10:51:51.055Z,27.90
2022-09-12T10:54:22.806Z,27.90
2022-09-12T10:56:54.329Z,27.80
2022-09-12T11:00:02.687Z,27.80
2022-09-12T11:02:34.448Z,27.80
2022-09-12T11:05:12.962Z,27.70
2022-09-12T11:07:43.450Z,27.70
2022-09-12T11:10:36.783Z,27.70
2022-09-12T11:13:29.229Z,27.70
2022-09-12T11:16:04.241Z,27.70
2022-09-12T11:18:53.554Z,27.70
2022-09-12T11:21:50.345Z,27.70
2022-09-12T11:24:45.174Z,27.60
2022-09-12T11:27:36.986Z,27.60
2022-09-12T11:30:15.023Z,27.60
2022-09-12T11:33:35.634Z,27.50
2022-09-12T11:36:16.170Z,27.50
2022-09-12T11:38:52.988Z,27.50
2022-09-12T11:41:35.284Z,27.40
2022-09-12T11:44:15.466Z,27.40
2022-09-12T11:46:51.083Z,27.40
2022-09-12T11:49:32.432Z,27.40
2022-09-12T11:52:07.712Z,27.30
2022-09-12T11:55:16.095Z,27.30
2022-09-12T11:57:52.189Z,27.30
2022-09-12T12:00:34.352Z,27.30
2022-09-12T12:03:16.373Z,27.40
2022-09-12T12:05:54.490Z,27.30
2022-09-12T12:08:25.117Z,27.30
2022-09-12T12:10:57.771Z,27.30
2022-09-12T12:13:33.489Z,27.30
2022-09-12T12:16:09.989Z,27.30
2022-09-12T12:18:42.223Z,27.20
2022-09-12T12:21:24.054Z,27.20
2022-09-12T12:24:21.174Z,27.10
2022-09-12T12:26:57.276Z,27.10
2022-09-12T12:29:39.187Z,27.10
2022-09-12T12:32:11.671Z,27.10
2022-09-12T12:34:43.059Z,27.10
2022-09-12T12:37:32.251Z,27.10
2022-09-12T12:40:09.175Z,27.10
2022-09-12T12:42:58.448Z,27.20
2022-09-12T12:45:31.964Z,27.20
2022-09-12T12:48:20.084Z,27.20
2022-09-12T12:50:49.892Z,27.20
2022-09-12T12:53:26.406Z,27.10
2022-09-12T12:55:58.217Z,27.00
2022-09-12T12:58:31.431Z,27.00
2022-09-12T13:01:19.318Z,27.00
2022-09-12T13:03:57.710Z,27.00
2022-09-12T13:06:36.345Z,26.90
2022-09-12T13:09:11.271Z,27.00
2022-09-12T13:11:42.266Z,26.90
2022-09-12T13:14:34.952Z,26.90
2022-09-12T13:17:09.612Z,26.90
2022-09-12T13:19:39.857Z,26.90
2022-09-12T13:22:11.075Z,26.90
2022-09-12T13:24:50.476Z,26.90
2022-09-12T13:27:21.336Z,26.90
2022-09-12T13:29:50.999Z,26.90
2022-09-12T13:32:20.532Z,26.90
2022-09-12T13:35:06.858Z,26.90
2022-09-12T13:37:56.055Z,26.90
2022-09-12T13:40:27.188Z,26.90
2022-09-12T13:43:18.738Z,26.80
2022-09-12T13:45:49.363Z,26.80
2022-09-12T13:48:23.430Z,26.80
2022-09-12T13:50:59.530Z,26.80
2022-09-12T13:53:34.013Z,26.80
2022-09-12T13:56:05.043Z,26.80
2022-09-12T13:58:36.653Z,26.70
2022-09-12T14:01:10.839Z,26.70
2022-09-12T14:04:12.053Z,26.70
2022-09-12T14:06:49.149Z,26.70
2022-09-12T14:09:27.678Z,26.70
2022-09-12T14:11:57.875Z,26.70
2022-09-12T14:14:38.000Z,26.70
2022-09-12T14:17:34.324Z,26.70
2022-09-12T14:20:07.678Z,26.70
2022-09-12T14:22:37.738Z,26.60
2022-09-12T14:25:10.343Z,26.60
2022-09-12T14:27:54.139Z,26.60
2022-09-12T14:30:34.737Z,26.60
2022-09-12T14:33:12.408Z,26.60
2022-09-12T14:35:47.474Z,26.60
2022-09-12T14:38:18.604Z,26.60
2022-09-12T14:40:50.402Z,26.60
2022-09-12T14:43:36.766Z,26.60
2022-09-12T14:46:21.905Z,26.60
2022-09-12T14:48:55.616Z,26.60
2022-09-12T14:51:29.569Z,26.60
2022-09-12T14:53:59.856Z,26.60
2022-09-12T14:56:55.613Z,26.60
2022-09-12T14:59:42.199Z,26.60
2022-09-12T15:02:31.183Z,26.60
2022-09-12T15:05:08.858Z,26.60
2022-09-12T15:07:39.436Z,26.50
2022-09-12T15:10:30.526Z,26.50
2022-09-12T15:13:18.256Z,26.50
2022-09-12T15:15:51.452Z,26.40
2022-09-12T15:18:23.411Z,26.40
2022-09-12T15:20:57.670Z,26.40
2022-09-12T15:23:52.465Z,26.40
2022-09-12T15:26:28.824Z,26.40
2022-09-12T15:28:58.008Z,26.40
2022-09-12T15:31:29.971Z,26.40
2022-09-12T15:34:01.339Z,26.40
2022-09-12T15:36:30.991Z,26.40
2022-09-12T15:39:00.386Z,26.40
2022-09-12T15:41:31.487Z,26.40
2022-09-12T15:44:00.972Z,26.40
2022-09-12T15:46:30.140Z,26.30
2022-09-12T15:48:59.356Z,26.30
2022-09-12T15:51:28.427Z,26.30
2022-09-12T15:53:57.597Z,26.40
2022-09-12T15:56:26.963Z,26.30
2022-09-12T15:58:59.199Z,26.30
2022-09-12T16:01:30.533Z,26.30
2022-09-12T16:04:00.042Z,26.30
2022-09-12T16:06:36.317Z,26.40
2022-09-12T16:09:06.411Z,26.30
2022-09-12T16:11:35.993Z,26.30
2022-09-12T16:14:06.508Z,26.30
2022-09-12T16:16:37.123Z,26.30
2022-09-12T16:19:06.520Z,26.30
2022-09-12T16:21:35.850Z,26.30
2022-09-12T16:24:09.106Z,26.30
2022-09-12T16:26:38.418Z,26.30
2022-09-12T16:29:10.119Z,26.30
2022-09-12T16:31:40.640Z,26.30
2022-09-12T16:34:10.036Z,26.30
2022-09-12T16:36:39.885Z,26.30
2022-09-12T16:39:09.251Z,26.30
2022-09-12T16:41:38.588Z,26.30
2022-09-12T16:44:08.065Z,26.30
2022-09-12T16:46:37.260Z,26.30
2022-09-12T16:49:07.838Z,26.20
2022-09-12T16:51:38.139Z,26.20
2022-09-12T16:54:10.324Z,26.20
2022-09-12T16:56:40.010Z,26.20
2022-09-12T17:03:05.548Z,26.20
2022-09-12T17:05:34.807Z,26.20
2022-09-12T17:08:04.476Z,26.20
2022-09-12T17:10:34.114Z,26.10
2022-09-12T17:13:04.332Z,26.10
2022-09-12T17:15:33.492Z,26.10
2022-09-12T17:18:02.605Z,26.10
2022-09-12T17:20:31.687Z,26.10
2022-09-12T17:23:01.568Z,26.10
2022-09-12T17:25:30.940Z,26.00
2022-09-12T17:28:00.071Z,26.00
2022-09-12T17:30:29.241Z,26.00
2022-09-12T17:32:58.440Z,26.00
2022-09-12T17:35:27.556Z,26.10
2022-09-12T17:37:56.851Z,26.10
2022-09-12T17:40:42.436Z,26.10
2022-09-12T17:43:16.462Z,26.10
2022-09-12T17:45:45.607Z,26.10
2022-09-12T17:48:14.750Z,26.10
2022-09-12T17:50:47.081Z,26.00
2022-09-12T17:53:16.208Z,26.00
2022-09-12T17:55:45.345Z,26.00
2022-09-12T17:58:14.557Z,26.00
2022-09-12T18:01:03.345Z,26.00
2022-09-12T18:03:32.466Z,26.00
2022-09-12T18:06:02.387Z,26.00
2022-09-12T18:08:31.603Z,26.00
2022-09-12T18:11:06.927Z,26.00
2022-09-12T18:13:36.750Z,26.00
2022-09-12T18:16:08.341Z,25.90
2022-09-12T18:18:38.510Z,25.90
2022-09-12T18:21:09.827Z,25.80
2022-09-12T18:23:39.039Z,25.80
2022-09-12T18:26:10.247Z,25.90
2022-09-12T18:28:42.339Z,25.80
2022-09-12T18:31:17.653Z,25.90
2022-09-12T18:33:47.865Z,25.80
2022-09-12T18:36:18.530Z,25.90
2022-09-12T18:38:49.188Z,25.90
2022-09-12T18:41:22.035Z,25.90
2022-09-12T18:43:55.735Z,25.90
2022-09-12T18:46:25.784Z,25.90
2022-09-12T18:48:59.011Z,25.90
2022-09-12T18:51:32.903Z,25.90
2022-09-12T18:54:05.146Z,25.80
2022-09-12T18:56:36.495Z,25.90
2022-09-12T18:59:07.066Z,25.90
2022-09-12T19:01:39.150Z,25.90
2022-09-12T19:04:11.122Z,25.80
2022-09-12T19:06:43.182Z,25.90
2022-09-12T19:09:14.353Z,25.80
2022-09-12T19:11:50.328Z,25.80
2022-09-12T19:14:23.900Z,25.80
2022-09-12T19:16:53.554Z,25.90
2022-09-12T19:19:22.922Z,25.80
2022-09-12T19:21:52.020Z,25.80
2022-09-12T19:24:23.120Z,25.80
2022-09-12T19:26:53.036Z,25.80
2022-09-12T19:29:22.166Z,25.80
2022-09-12T19:31:51.333Z,25.80
2022-09-12T19:34:20.468Z,25.80
2022-09-12T19:36:49.673Z,25.80
2022-09-12T19:39:21.076Z,25.80
2022-09-12T19:41:50.594Z,25.70
2022-09-12T19:44:20.974Z,25.80
2022-09-12T19:46:50.269Z,25.80
2022-09-12T19:49:19.407Z,25.70
2022-09-12T19:51:48.603Z,25.70
2022-09-12T19:54:17.696Z,25.70
2022-09-12T19:56:46.797Z,25.70
2022-09-12T19:59:15.959Z,25.70
2022-09-12T20:01:45.160Z,25.60
2022-09-12T20:04:14.376Z,25.70
2022-09-12T20:06:43.727Z,25.70
2022-09-12T20:09:13.198Z,25.70
2022-09-12T20:11:42.502Z,25.60
2022-09-12T20:14:11.724Z,25.60
2022-09-12T20:16:40.827Z,25.60
2022-09-12T20:19:10.098Z,25.60
2022-09-12T20:21:39.434Z,25.60
2022-09-12T20:24:12.336Z,25.60
2022-09-12T20:26:42.223Z,25.60
2022-09-12T20:29:11.981Z,25.60
2022-09-12T20:31:43.058Z,25.60
2022-09-12T20:34:17.669Z,25.60
2022-09-12T20:36:47.662Z,25.60
2022-09-12T20:39:20.685Z,25.70
2022-09-12T20:41:50.129Z,25.70
2022-09-12T20:44:19.368Z,25.70
2022-09-12T20:46:48.609Z,25.70
2022-09-12T20:49:17.779Z,25.70
2022-09-12T20:51:46.949Z,25.70
2022-09-12T20:54:16.085Z,25.70
2022-09-12T20:56:46.269Z,25.70
2022-09-12T20:59:15.538Z,25.60
2022-09-12T21:01:45.427Z,25.60
2022-09-12T21:04:15.318Z,25.60
2022-09-12T21:06:44.611Z,25.50
2022-09-12T21:09:13.731Z,25.50
2022-09-12T21:11:43.094Z,25.50
2022-09-12T21:14:12.339Z,25.50
2022-09-12T21:16:41.442Z,25.50
2022-09-12T21:19:10.632Z,25.50
2022-09-12T21:21:39.881Z,25.50
2022-09-12T21:24:09.863Z,25.60
2022-09-12T21:26:39.026Z,25.60
2022-09-12T21:29:08.182Z,25.70
2022-09-12T21:31:37.341Z,25.60
2022-09-12T21:34:06.529Z,25.70
2022-09-12T21:36:35.648Z,25.70
2022-09-12T21:39:04.828Z,25.70
2022-09-12T21:41:33.975Z,25.60
2022-09-12T21:44:03.310Z,25.60
2022-09-12T21:46:32.472Z,25.60
2022-09-12T21:49:01.740Z,25.70
2022-09-12T21:51:30.883Z,25.60
2022-09-12T21:54:00.098Z,25.60
2022-09-12T21:56:29.263Z,25.60
2022-09-12T21:58:58.398Z,25.60
2022-09-12T22:01:30.408Z,25.60
2022-09-12T22:03:59.784Z,25.60
2022-09-12T22:06:28.988Z,25.50
2022-09-12T22:08:58.142Z,25.60
2022-09-12T22:11:27.232Z,25.50
2022-09-12T22:13:56.465Z,25.50
2022-09-12T22:16:25.629Z,25.50
2022-09-12T22:18:55.694Z,25.50
2022-09-12T22:21:25.785Z,25.50
2022-09-12T22:24:14.488Z,25.50
2022-09-12T22:26:47.587Z,25.50
2022-09-12T22:29:16.723Z,25.50
2022-09-12T22:31:45.958Z,25.50
2022-09-12T22:34:15.622Z,25.50
2022-09-12T22:36:45.273Z,25.50
2022-09-12T22:39:14.516Z,25.40
2022-09-12T22:41:43.643Z,25.50
2022-09-12T22:44:13.578Z,25.50
2022-09-12T22:46:42.845Z,25.50
2022-09-12T22:49:12.125Z,25.40
2022-09-12T22:51:41.380Z,25.50
2022-09-12T22:54:11.683Z,25.40
2022-09-12T22:56:41.436Z,25.50
2022-09-12T22:59:10.657Z,25.40
2022-09-12T23:01:39.766Z,25.40
2022-09-12T23:04:11.548Z,25.50
2022-09-12T23:06:40.634Z,25.50
2022-09-12T23:09:09.743Z,25.40
2022-09-12T23:11:38.911Z,25.50
2022-09-12T23:14:08.033Z,25.50
2022-09-12T23:16:37.238Z,25.40
2022-09-12T23:19:06.464Z,25.40
2022-09-12T23:21:35.694Z,25.40
2022-09-12T23:24:05.375Z,25.40
2022-09-12T23:26:34.817Z,25.30
2022-09-12T23:29:07.001Z,25.30
2022-09-12T23:31:36.966Z,25.30
2022-09-12T23:34:08.333Z,25.20
2022-09-12T23:36:37.767Z,25.20
2022-09-12T23:39:07.202Z,25.20
2022-09-12T23:41:36.381Z,25.20
2022-09-12T23:44:05.582Z,25.20
2022-09-12T23:46:34.773Z,25.20
2022-09-12T23:49:03.897Z,25.20
2022-09-12T23:51:33.113Z,25.30
2022-09-12T23:54:02.262Z,25.30
2022-09-12T23:56:31.391Z,25.30
2022-09-12T23:59:00.595Z,25.30
